Time;durP1;ratioP1;P1;durP2;ratioP2;P2;SDS_P1;SDS_P2;PMS_P1;PMS_P2;Temp;Humidity;BMP_temperature;BMP_pressure;BME280_temperature;BME280_humidity;BME280_pressure;Samples;Min_cycle;Max_cycle;Signal;HPM_P1;HPM_P2
2024/01/09 00:01:31;;;;;;;119.70;52.72;;;;;;;-9.75;86.75;101586.56;5052523;28;20025;-83
2024/01/09 00:03:57;;;;;;;153.63;67.90;;;;;;;-9.84;86.92;101570.84;5052411;28;20104;-83
2024/01/09 00:06:22;;;;;;;160.35;71.18;;;;;;;-9.81;86.59;101578.63;5051882;28;20045;-83
2024/01/09 00:08:47;;;;;;;126.43;52.80;;;;;;;-10.06;86.90;101533.28;5051911;28;20456;-82
2024/01/09 00:11:13;;;;;;;138.30;58.28;;;;;;;-9.98;86.97;101549.78;5051653;28;20076;-83
2024/01/09 00:13:39;;;;;;;131.82;56.90;;;;;;;-9.91;86.98;101573.72;5052018;28;20021;-83
2024/01/09 00:16:05;;;;;;;120.95;50.88;;;;;;;-9.81;87.24;101576.97;5051729;28;20029;-82
2024/01/09 00:18:30;;;;;;;119.53;52.67;;;;;;;-9.94;87.27;101561.81;5051606;28;20060;-83
2024/01/09 00:20:56;;;;;;;107.40;47.55;;;;;;;-10.25;87.02;101528.66;5051675;28;20082;-83
2024/01/09 00:23:21;;;;;;;114.05;50.03;;;;;;;-10.15;87.42;101557.88;5051828;28;20055;-83
2024/01/09 00:25:46;;;;;;;111.05;47.38;;;;;;;-10.16;87.62;101556.97;5051722;28;20484;-82
2024/01/09 00:28:12;;;;;;;144.52;61.95;;;;;;;-10.02;87.86;101587.28;5051785;28;20032;-83
2024/01/09 00:30:37;;;;;;;100.80;43.05;;;;;;;-9.99;87.93;101568.16;5051902;28;20154;-83
2024/01/09 00:33:03;;;;;;;97.53;42.95;;;;;;;-9.96;87.70;101578.47;5054390;28;20482;-82
2024/01/09 00:35:28;;;;;;;99.82;42.35;;;;;;;-10.33;87.51;101524.75;5055552;28;20029;-83
2024/01/09 00:37:53;;;;;;;87.10;38.67;;;;;;;-10.04;87.68;101579.59;5053460;28;20470;-83
2024/01/09 00:40:19;;;;;;;112.40;50.55;;;;;;;-9.82;87.74;101585.31;5054788;28;20025;-83
2024/01/09 00:42:44;;;;;;;100.20;47.55;;;;;;;-10.17;87.72;101535.06;5055170;28;20048;-82
2024/01/09 00:45:10;;;;;;;114.38;52.25;;;;;;;-9.81;86.97;101602.19;5054846;28;20051;-83
2024/01/09 00:47:36;;;;;;;111.80;50.47;;;;;;;-9.72;87.02;101591.81;5055136;28;20017;-82
2024/01/09 00:50:01;;;;;;;112.18;52.70;;;;;;;-9.69;86.89;101578.53;5053756;28;20036;-83
2024/01/09 00:52:27;;;;;;;113.53;46.75;;;;;;;-9.73;86.38;101591.69;5054785;28;20025;-82
2024/01/09 00:54:52;;;;;;;106.43;48.53;;;;;;;-10.10;86.35;101536.34;5054623;28;20104;-82
2024/01/09 00:57:17;;;;;;;99.63;44.40;;;;;;;-9.91;86.46;101551.91;5054349;28;20040;-83
2024/01/09 00:59:43;;;;;;;99.68;44.85;;;;;;;-9.71;86.40;101578.44;5054536;28;20025;-83
2024/01/09 01:02:08;;;;;;;93.72;40.78;;;;;;;-9.96;86.11;101567.50;5054605;28;20071;-82
2024/01/09 01:04:38;;;;;;;144.73;71.15;;;;;;;-10.05;86.38;101560.22;5054578;28;20360;-82
2024/01/09 01:07:03;;;;;;;103.93;42.08;;;;;;;-10.01;86.27;101577.28;5014635;28;1160852;-82
2024/01/09 01:09:29;;;;;;;92.25;40.97;;;;;;;-10.29;86.36;101551.03;5055845;28;20083;-82
2024/01/09 01:11:54;;;;;;;99.43;43.42;;;;;;;-10.07;86.92;101565.16;5055890;28;20021;-82
2024/01/09 01:14:19;;;;;;;101.65;43.28;;;;;;;-10.10;86.77;101554.88;5055528;28;20021;-83
2024/01/09 01:16:45;;;;;;;103.30;44.13;;;;;;;-10.01;86.48;101568.84;5055030;28;20052;-82
2024/01/09 01:19:10;;;;;;;101.97;43.72;;;;;;;-9.93;85.85;101591.28;5055053;28;20071;-82
2024/01/09 01:21:36;;;;;;;110.90;45.67;;;;;;;-9.96;86.26;101570.03;5055255;28;20100;-83
2024/01/09 01:24:01;;;;;;;136.02;59.08;;;;;;;-9.93;85.89;101573.63;5055207;28;20104;-82
2024/01/09 01:26:26;;;;;;;137.65;60.05;;;;;;;-9.81;85.46;101589.56;5055273;28;20467;-83
2024/01/09 01:28:52;;;;;;;99.88;48.80;;;;;;;-9.81;85.20;101599.66;5053851;28;20028;-83
2024/01/09 01:31:18;;;;;;;139.77;61.20;;;;;;;-9.97;85.24;101574.19;5054798;28;20025;-83
2024/01/09 01:33:43;;;;;;;114.30;51.92;;;;;;;-9.78;85.44;101598.97;5055026;28;20376;-82
2024/01/09 01:36:16;;;;;;;104.95;47.17;;;;;;;-9.98;85.22;101589.22;5054747;28;20073;-82
2024/01/09 01:38:43;;;;;;;124.18;51.17;;;;;;;-10.18;85.13;101572.78;5054894;28;20502;-83
2024/01/09 01:41:08;;;;;;;95.57;41.25;;;;;;;-10.10;85.28;101592.66;5054351;28;20491;-83
2024/01/09 01:43:34;;;;;;;83.93;37.72;;;;;;;-10.22;85.45;101586.81;5053521;28;20025;-83
2024/01/09 01:45:59;;;;;;;102.38;46.10;;;;;;;-10.27;85.31;101598.25;5055004;28;20095;-82
2024/01/09 01:48:25;;;;;;;112.05;48.15;;;;;;;-10.44;85.81;101568.53;5054982;28;20029;-82
2024/01/09 01:50:50;;;;;;;124.15;58.50;;;;;;;-10.19;85.97;101609.69;5054771;28;20182;-83
2024/01/09 01:53:17;;;;;;;130.98;51.88;;;;;;;-10.21;86.19;101580.97;5054487;28;20360;-82
2024/01/09 01:55:43;;;;;;;116.60;53.78;;;;;;;-9.99;85.72;101603.44;5053443;28;20465;-82
2024/01/09 01:58:08;;;;;;;105.88;50.22;;;;;;;-10.14;85.48;101575.59;5054229;28;20052;-83
2024/01/09 02:00:35;;;;;;;103.32;45.35;;;;;;;-10.00;85.59;101589.09;5054494;28;20037;-82
2024/01/09 02:03:01;;;;;;;105.20;45.92;;;;;;;-9.92;84.93;101609.78;5054384;28;20102;-82
2024/01/09 02:05:28;;;;;;;107.15;44.78;;;;;;;-10.08;85.14;101583.56;5052891;28;20094;-83
2024/01/09 02:07:54;;;;;;;116.35;49.05;;;;;;;-9.99;85.20;101611.00;5054351;28;20029;-82
2024/01/09 02:10:20;;;;;;;94.20;44.85;;;;;;;-9.89;85.12;101612.53;5054320;28;20063;-82
2024/01/09 02:12:46;;;;;;;98.63;45.00;;;;;;;-10.15;85.11;101571.34;5054495;28;20021;-82
2024/01/09 02:15:12;;;;;;;105.50;44.83;;;;;;;-9.99;84.97;101600.06;5054356;28;20025;-82
2024/01/09 02:17:38;;;;;;;100.65;44.65;;;;;;;-10.01;85.15;101616.75;5053058;28;20449;-83
2024/01/09 02:20:08;;;;;;;97.35;41.35;;;;;;;-10.22;85.01;101581.75;5054125;28;20032;-82
2024/01/09 02:22:33;;;;;;;95.15;42.35;;;;;;;-10.01;85.10;101605.00;5052984;28;20395;-82
2024/01/09 02:24:59;;;;;;;90.93;39.97;;;;;;;-10.25;85.34;101588.28;5053152;28;20039;-82
2024/01/09 02:27:46;;;;;;;114.97;51.17;;;;;;;-10.31;85.42;101556.84;5053974;28;20021;-82
2024/01/09 02:30:12;;;;;;;106.65;44.53;;;;;;;-10.00;85.44;101606.75;5054958;28;20037;-83
2024/01/09 02:32:38;;;;;;;120.30;53.65;;;;;;;-10.13;85.48;101587.41;5054954;28;20025;-82
2024/01/09 02:35:04;;;;;;;114.93;51.75;;;;;;;-10.15;85.50;101600.69;5054466;28;20040;-82
2024/01/09 02:37:29;;;;;;;94.25;43.90;;;;;;;-10.02;85.22;101615.88;5055053;28;20055;-82
2024/01/09 02:40:00;;;;;;;91.57;43.72;;;;;;;-10.20;85.17;101584.38;5054271;28;20058;-82
2024/01/09 02:42:26;;;;;;;92.53;41.22;;;;;;;-10.05;85.17;101619.03;5053359;28;20029;-82
2024/01/09 02:44:54;;;;;;;88.97;41.47;;;;;;;-10.00;85.51;101631.09;5055057;28;20025;-82
2024/01/09 02:47:21;;;;;;;85.05;39.75;;;;;;;-10.25;85.32;101596.69;5054470;28;20024;-82
2024/01/09 02:49:46;;;;;;;91.20;44.13;;;;;;;-10.11;85.34;101631.25;5054435;28;20099;-82
2024/01/09 02:52:11;;;;;;;95.05;41.28;;;;;;;-10.22;85.82;101631.28;5055020;28;20107;-83
2024/01/09 02:54:37;;;;;;;193.90;68.35;;;;;;;-10.45;85.83;101584.38;5054890;28;20479;-82
2024/01/09 02:57:02;;;;;;;161.88;60.55;;;;;;;-10.26;86.00;101619.28;5054014;28;20016;-83
2024/01/09 02:59:28;;;;;;;158.18;58.88;;;;;;;-10.14;86.23;101620.09;5055084;28;20020;-83
2024/01/09 03:01:53;;;;;;;125.22;50.33;;;;;;;-10.29;85.93;101588.81;5055071;28;20464;-82
2024/01/09 03:04:19;;;;;;;99.55;45.22;;;;;;;-10.08;85.59;101612.91;5056282;28;20033;-82
2024/01/09 03:06:45;;;;;;;117.13;47.03;;;;;;;-10.11;85.77;101605.16;5056771;28;20075;-82
2024/01/09 03:09:11;;;;;;;104.22;49.08;;;;;;;-10.06;85.72;101602.19;5056821;28;20025;-83
2024/01/09 03:11:37;;;;;;;84.60;41.72;;;;;;;-10.03;85.19;101598.09;5057728;28;20383;-83
2024/01/09 03:14:02;;;;;;;109.80;47.45;;;;;;;-10.28;85.16;101578.84;5056521;28;20021;-82
2024/01/09 03:16:27;;;;;;;126.45;57.17;;;;;;;-10.16;85.34;101619.97;5053037;28;20025;-83
2024/01/09 03:18:53;;;;;;;124.28;52.28;;;;;;;-10.26;85.36;101586.53;5053171;28;20021;-83
2024/01/09 03:21:18;;;;;;;117.43;50.13;;;;;;;-10.10;85.53;101602.75;5052836;28;20032;-83
2024/01/09 03:23:44;;;;;;;113.18;48.72;;;;;;;-10.07;84.95;101614.66;5051634;28;20023;-83
2024/01/09 03:26:09;;;;;;;140.38;54.40;;;;;;;-10.16;84.99;101619.09;5052648;28;20021;-83
2024/01/09 03:28:37;;;;;;;134.75;50.80;;;;;;;-10.26;85.33;101606.69;5052797;28;20056;-83
2024/01/09 03:31:03;;;;;;;139.23;56.75;;;;;;;-10.18;85.33;101608.91;5052850;28;20021;-83
2024/01/09 03:33:28;;;;;;;134.23;52.80;;;;;;;-10.50;85.51;101571.47;5052579;28;20345;-82
2024/01/09 03:35:53;;;;;;;118.47;46.40;;;;;;;-10.49;85.84;101587.47;5053267;28;20460;-83
2024/01/09 03:38:19;;;;;;;126.68;50.28;;;;;;;-10.34;85.84;101613.72;5052539;28;20020;-83
2024/01/09 03:40:45;;;;;;;136.23;56.45;;;;;;;-10.32;86.16;101609.66;5051508;28;20025;-83
2024/01/09 03:43:10;;;;;;;151.32;59.05;;;;;;;-10.73;86.16;101533.78;5052469;28;20013;-82
2024/01/09 03:45:36;;;;;;;159.05;58.97;;;;;;;-10.28;86.33;101606.56;5052924;28;20013;-83
2024/01/09 03:48:01;;;;;;;149.18;61.97;;;;;;;-10.34;86.13;101588.53;5052776;28;20025;-83
2024/01/09 03:50:27;;;;;;;129.02;54.05;;;;;;;-10.22;85.99;101606.09;5052834;28;20021;-82
2024/01/09 03:52:52;;;;;;;148.20;55.72;;;;;;;-10.22;85.75;101617.03;5052728;28;20043;-83
2024/01/09 03:55:17;;;;;;;188.18;73.85;;;;;;;-10.33;85.67;101592.78;5052173;28;20146;-83
2024/01/09 03:57:43;;;;;;;157.50;68.15;;;;;;;-10.28;85.73;101608.19;5052558;28;20025;-83
2024/01/09 04:00:09;;;;;;;136.35;57.97;;;;;;;-10.23;85.78;101612.78;5052450;28;20017;-83
2024/01/09 04:02:34;;;;;;;121.65;51.53;;;;;;;-10.55;85.33;101550.16;5052588;28;20043;-83
2024/01/09 04:05:00;;;;;;;132.55;53.83;;;;;;;-10.21;85.31;101611.22;5052540;28;20017;-83
2024/01/09 04:07:26;;;;;;;144.77;60.05;;;;;;;-10.45;85.02;101575.22;5054871;28;20044;-82
2024/01/09 04:09:51;;;;;;;165.75;68.78;;;;;;;-10.31;85.32;101608.88;5056634;28;20028;-82
2024/01/09 04:12:17;;;;;;;168.90;62.60;;;;;;;-10.17;84.60;101617.34;5056155;28;20021;-83
2024/01/09 04:14:43;;;;;;;152.38;58.45;;;;;;;-10.29;84.63;101607.34;5056434;28;20345;-82
2024/01/09 04:17:08;;;;;;;157.63;61.53;;;;;;;-10.59;84.29;101588.47;5056331;28;20029;-83
2024/01/09 04:19:37;;;;;;;152.48;59.72;;;;;;;-10.61;84.19;101600.09;5056049;28;20435;-82
2024/01/09 04:22:03;;;;;;;133.00;57.03;;;;;;;-10.54;84.23;101603.91;5056248;28;20021;-82
2024/01/09 04:24:28;;;;;;;143.15;56.20;;;;;;;-10.42;84.23;101599.72;5056239;28;20036;-83
2024/01/09 04:26:54;;;;;;;134.10;51.00;;;;;;;-10.45;84.02;101589.41;5056562;28;20021;-83
2024/01/09 04:29:19;;;;;;;122.50;54.47;;;;;;;-10.31;83.89;101611.41;5056356;28;20025;-82
2024/01/09 04:31:44;;;;;;;121.88;53.58;;;;;;;-10.36;83.84;101633.78;5056249;28;20029;-83
2024/01/09 04:34:10;;;;;;;136.55;53.58;;;;;;;-10.49;84.02;101628.66;5056102;28;20043;-83
2024/01/09 04:36:35;;;;;;;154.85;57.38;;;;;;;-10.78;84.25;101588.00;5055909;28;20029;-82
2024/01/09 04:39:01;;;;;;;164.73;63.88;;;;;;;-10.53;84.20;101635.88;5055925;28;20051;-83
2024/01/09 04:41:26;;;;;;;190.18;72.03;;;;;;;-10.62;84.47;101590.78;5055982;28;20539;-83
2024/01/09 04:43:52;;;;;;;197.68;83.32;;;;;;;-10.36;84.35;101623.69;5055665;28;20025;-83
2024/01/09 04:46:17;;;;;;;275.50;111.90;;;;;;;-10.40;84.32;101621.72;5055779;28;20407;-83
2024/01/09 04:48:42;;;;;;;411.73;167.40;;;;;;;-10.32;84.36;101638.25;5055948;28;20029;-83
2024/01/09 04:51:08;;;;;;;476.08;198.13;;;;;;;-10.59;84.33;101591.00;5055869;28;20021;-83
2024/01/09 04:53:34;;;;;;;361.63;151.82;;;;;;;-10.51;84.32;101605.00;5055505;28;20139;-83
2024/01/09 04:56:00;;;;;;;255.25;103.35;;;;;;;-10.56;83.92;101602.16;5055699;28;20028;-82
2024/01/09 04:58:25;;;;;;;247.25;98.25;;;;;;;-10.60;83.99;101596.81;5055368;28;20025;-83
2024/01/09 05:00:51;;;;;;;182.10;69.53;;;;;;;-10.51;83.76;101614.19;5055594;28;20024;-82
2024/01/09 05:03:16;;;;;;;159.50;65.40;;;;;;;-10.66;83.95;101594.75;5055333;28;20104;-82
2024/01/09 05:05:41;;;;;;;158.85;62.95;;;;;;;-10.68;83.95;101608.84;5055213;28;20506;-81
2024/01/09 05:08:07;;;;;;;145.93;56.95;;;;;;;-10.61;84.05;101641.25;5055679;28;20021;-82
2024/01/09 05:10:32;;;;;;;130.93;54.58;;;;;;;-10.98;84.73;101589.09;5055259;28;20378;-82
2024/01/09 05:12:58;;;;;;;131.73;56.80;;;;;;;-10.70;85.25;101649.78;5055189;28;20112;-82
2024/01/09 05:15:23;;;;;;;126.07;54.65;;;;;;;-10.75;85.55;101634.38;5054878;28;20055;-82
2024/01/09 05:17:49;;;;;;;130.57;53.65;;;;;;;-10.97;85.88;101598.38;5054983;28;20021;-81
2024/01/09 05:20:14;;;;;;;108.00;43.92;;;;;;;-10.88;85.58;101626.72;5054900;28;20025;-82
2024/01/09 05:22:40;;;;;;;101.88;41.60;;;;;;;-10.90;85.88;101635.81;5055438;28;20031;-82
2024/01/09 05:25:06;;;;;;;103.78;44.80;;;;;;;-10.76;85.91;101644.34;5055606;28;20033;-81
2024/01/09 05:27:32;;;;;;;128.95;54.22;;;;;;;-10.74;86.29;101635.22;5053616;28;20047;-81
2024/01/09 05:29:58;;;;;;;121.70;49.17;;;;;;;-10.91;86.04;101622.38;5054923;28;20033;-82
2024/01/09 05:32:24;;;;;;;119.63;47.88;;;;;;;-10.81;85.89;101649.91;5054785;28;20020;-82
2024/01/09 05:34:50;;;;;;;135.15;52.30;;;;;;;-10.73;86.10;101659.66;5054924;28;20032;-82
2024/01/09 05:37:15;;;;;;;119.72;53.88;;;;;;;-10.66;86.32;101650.16;5055021;28;20056;-82
2024/01/09 05:39:46;;;;;;;117.93;47.70;;;;;;;-10.60;85.96;101654.72;5054760;28;20473;-82
2024/01/09 05:42:13;;;;;;;116.72;49.22;;;;;;;-10.77;85.67;101637.56;5054842;28;20025;-82
2024/01/09 05:44:39;;;;;;;120.90;49.22;;;;;;;-10.59;85.88;101653.94;5054711;28;20021;-82
2024/01/09 05:47:05;;;;;;;139.65;56.88;;;;;;;-10.62;85.67;101631.06;5054838;28;20021;-82
2024/01/09 05:49:30;;;;;;;147.73;62.22;;;;;;;-10.58;85.06;101638.06;5054479;28;20037;-82
2024/01/09 05:51:56;;;;;;;132.60;57.33;;;;;;;-10.45;85.00;101681.00;5054622;28;20405;-82
2024/01/09 05:54:21;;;;;;;128.65;54.45;;;;;;;-10.70;85.13;101643.13;5054698;28;20578;-82
2024/01/09 05:56:47;;;;;;;134.60;56.60;;;;;;;-10.68;85.26;101654.19;5054505;28;20028;-82
2024/01/09 05:59:12;;;;;;;146.48;60.65;;;;;;;-10.67;85.23;101639.94;5054655;28;20020;-82
2024/01/09 06:01:38;;;;;;;142.68;60.97;;;;;;;-10.38;85.14;101680.63;5035140;28;20033;-82
2024/01/09 06:04:05;;;;;;;127.25;51.78;;;;;;;-10.37;85.35;101681.50;5054345;28;20032;-82
2024/01/09 06:06:30;;;;;;;126.88;54.40;;;;;;;-10.52;84.49;101651.09;5053940;28;20103;-82
2024/01/09 06:08:56;;;;;;;116.07;52.55;;;;;;;-10.35;84.26;101685.03;5031527;28;20485;-82
2024/01/09 06:11:22;;;;;;;150.00;63.15;;;;;;;-10.31;84.38;101692.03;5031621;28;20037;-81
2024/01/09 06:13:48;;;;;;;172.88;71.32;;;;;;;-10.42;84.03;101692.91;5015272;28;20502;-82
2024/01/09 06:16:14;;;;;;;203.82;85.07;;;;;;;-10.45;83.87;101691.06;5031928;28;20037;-82
2024/01/09 06:18:39;;;;;;;196.10;89.03;;;;;;;-10.60;84.46;101677.38;5031366;28;20048;-82
2024/01/09 06:21:05;;;;;;;162.30;73.18;;;;;;;-10.77;83.89;101657.69;5031735;28;20057;-81
2024/01/09 06:23:31;;;;;;;150.18;70.43;;;;;;;-10.50;84.21;101701.56;5031332;28;20096;-81
2024/01/09 06:25:57;;;;;;;143.07;63.03;;;;;;;-10.78;84.31;101661.00;5031496;28;20025;-81
2024/01/09 06:28:23;;;;;;;139.65;65.47;;;;;;;-10.48;84.37;101702.56;5031013;28;20037;-82
2024/01/09 06:30:49;;;;;;;137.27;61.38;;;;;;;-10.42;84.27;101701.34;5030666;28;20025;-82
2024/01/09 06:33:15;;;;;;;132.15;59.67;;;;;;;-10.62;83.76;101662.19;5031266;28;20033;-81
2024/01/09 06:35:40;;;;;;;104.22;48.50;;;;;;;-10.48;83.64;101684.94;5030958;28;20413;-81
2024/01/09 06:38:06;;;;;;;100.47;45.80;;;;;;;-10.50;83.46;101687.31;5014684;28;20032;-81
2024/01/09 06:40:31;;;;;;;102.60;49.15;;;;;;;-10.72;83.71;101664.78;5047578;28;20041;-81
2024/01/09 06:42:56;;;;;;;352.40;140.50;;;;;;;-10.52;83.93;101698.94;5053611;28;20040;-82
2024/01/09 06:45:22;;;;;;;470.88;189.00;;;;;;;-10.73;83.42;101669.75;5053439;28;20040;-82
2024/01/09 06:47:47;;;;;;;446.00;167.27;;;;;;;-10.53;84.07;101711.41;5053763;28;20028;-81
2024/01/09 06:50:13;;;;;;;333.17;128.75;;;;;;;-10.70;83.87;101685.03;5053625;28;20091;-82
2024/01/09 06:52:38;;;;;;;267.88;110.80;;;;;;;-10.49;83.78;101714.28;5053172;28;20025;-82
2024/01/09 06:55:04;;;;;;;218.90;97.15;;;;;;;-10.65;83.57;101687.13;5053596;28;20375;-81
2024/01/09 06:57:30;;;;;;;228.60;96.63;;;;;;;-10.80;83.30;101665.91;5053960;28;20021;-81
2024/01/09 06:59:55;;;;;;;258.52;110.10;;;;;;;-10.88;82.69;101688.00;5053401;28;20025;-81
2024/01/09 07:02:21;;;;;;;263.05;111.10;;;;;;;-10.92;82.16;101692.69;5053423;28;20016;-81
2024/01/09 07:04:47;;;;;;;223.88;99.90;;;;;;;-10.94;81.85;101704.31;5053813;28;20112;-81
2024/01/09 07:07:12;;;;;;;199.98;85.88;;;;;;;-10.99;81.47;101713.19;5054455;28;20119;-82
2024/01/09 07:09:38;;;;;;;154.48;64.53;;;;;;;-11.26;81.51;101666.75;5053923;28;20029;-82
2024/01/09 07:12:04;;;;;;;125.20;52.72;;;;;;;-11.12;80.94;101696.31;5053763;28;20104;-82
2024/01/09 07:14:30;;;;;;;100.72;44.05;;;;;;;-11.03;81.30;101716.22;5054107;28;20027;-82
2024/01/09 07:16:55;;;;;;;117.13;46.47;;;;;;;-11.03;81.87;101711.19;5053744;28;20095;-82
2024/01/09 07:19:20;;;;;;;106.07;45.00;;;;;;;-11.04;81.87;101706.91;5053455;28;20017;-82
2024/01/09 07:21:46;;;;;;;113.53;44.90;;;;;;;-11.16;82.59;101691.81;5053689;28;20024;-82
2024/01/09 07:24:12;;;;;;;114.00;47.70;;;;;;;-10.92;82.88;101712.84;5053470;28;20032;-81
2024/01/09 07:26:42;;;;;;;114.38;46.95;;;;;;;-11.23;82.68;101652.75;5053586;28;20116;-81
2024/01/09 07:29:08;;;;;;;102.45;45.70;;;;;;;-11.32;82.54;101644.53;5053714;28;20518;-82
2024/01/09 07:31:34;;;;;;;106.10;45.03;;;;;;;-11.08;82.68;101698.25;5053490;28;20025;-81
2024/01/09 07:34:00;;;;;;;103.65;46.78;;;;;;;-11.10;82.87;101682.19;5054172;28;20360;-82
2024/01/09 07:36:25;;;;;;;109.25;44.17;;;;;;;-10.93;82.85;101708.56;5053051;28;20023;-82
2024/01/09 07:38:51;;;;;;;109.50;45.08;;;;;;;-10.89;82.86;101703.00;5054177;28;20502;-82
2024/01/09 07:41:17;;;;;;;114.22;51.00;;;;;;;-10.78;82.86;101717.25;5053812;28;20429;-82
2024/01/09 07:43:43;;;;;;;133.75;56.90;;;;;;;-10.75;83.12;101711.53;5053041;28;20021;-82
2024/01/09 07:46:12;;;;;;;138.50;59.63;;;;;;;-10.76;82.97;101717.34;5053754;28;20103;-82
2024/01/09 07:48:37;;;;;;;125.07;53.45;;;;;;;-10.82;83.01;101698.53;5053274;28;20021;-81
2024/01/09 07:51:03;;;;;;;132.43;54.92;;;;;;;-10.70;83.35;101701.03;5053029;28;20035;-82
2024/01/09 07:53:28;;;;;;;119.43;52.50;;;;;;;-10.59;83.57;101694.22;5052925;28;20021;-82
2024/01/09 07:55:54;;;;;;;98.70;46.03;;;;;;;-10.56;83.66;101671.78;5053491;28;20020;-82
2024/01/09 07:58:19;;;;;;;108.68;45.80;;;;;;;-10.43;83.76;101676.06;5052770;28;20028;-81
2024/01/09 08:00:46;;;;;;;115.13;44.97;;;;;;;-10.10;83.14;101721.19;5053844;28;20033;-81
2024/01/09 08:03:13;;;;;;;96.53;44.40;;;;;;;-10.24;83.08;101675.66;5054172;28;20056;-81
2024/01/09 08:05:39;;;;;;;111.00;47.92;;;;;;;-9.89;83.11;101731.88;5053405;28;20031;-81
2024/01/09 08:08:05;;;;;;;142.93;51.25;;;;;;;-10.11;83.35;101665.63;5054925;28;20452;-81
2024/01/09 08:10:30;;;;;;;124.40;52.83;;;;;;;-9.70;83.37;101728.09;5055317;28;20029;-81
2024/01/09 08:12:56;;;;;;;118.13;51.75;;;;;;;-9.63;83.40;101721.03;5053267;28;20032;-81
2024/01/09 08:15:21;;;;;;;119.00;50.10;;;;;;;-9.61;83.40;101716.97;5054546;28;20077;-81
2024/01/09 08:17:47;;;;;;;108.10;46.67;;;;;;;-9.50;83.24;101715.16;5053046;28;20201;-82
2024/01/09 08:20:12;;;;;;;94.22;45.33;;;;;;;-9.62;83.51;101684.09;5052964;28;20025;-82
2024/01/09 08:22:38;;;;;;;103.60;44.00;;;;;;;-9.56;83.38;101695.47;5052998;28;20025;-82
2024/01/09 08:25:04;;;;;;;109.72;47.67;;;;;;;-9.53;83.48;101683.81;5053169;28;20033;-82
2024/01/09 08:27:30;;;;;;;109.60;45.40;;;;;;;-9.46;83.44;101684.34;5052106;28;20071;-82
2024/01/09 08:29:55;;;;;;;101.05;44.20;;;;;;;-9.35;83.76;101701.06;5052989;28;20033;-82
2024/01/09 08:32:22;;;;;;;107.10;45.67;;;;;;;-9.31;83.41;101708.06;5053864;28;20103;-82
2024/01/09 08:34:47;;;;;;;100.03;44.72;;;;;;;-9.57;83.33;101676.03;5052936;28;20020;-81
2024/01/09 08:37:13;;;;;;;100.32;44.80;;;;;;;-9.42;84.06;101703.06;5053082;28;20064;-83
2024/01/09 08:39:38;;;;;;;115.82;47.13;;;;;;;-9.52;84.05;101686.47;5052565;28;20515;-82
2024/01/09 08:42:04;;;;;;;93.82;42.55;;;;;;;-9.59;83.98;101675.06;5051815;28;20021;-82
2024/01/09 08:44:29;;;;;;;102.95;42.92;;;;;;;-9.44;83.86;101707.13;5053117;28;20100;-82
2024/01/09 08:46:55;;;;;;;100.40;45.35;;;;;;;-9.43;83.65;101719.00;5053275;28;20029;-82
2024/01/09 08:49:20;;;;;;;105.75;45.35;;;;;;;-9.53;83.53;101698.94;5052634;28;20452;-82
2024/01/09 08:51:45;;;;;;;105.32;45.33;;;;;;;-9.46;83.65;101704.50;5052928;28;20017;-82
2024/01/09 08:54:11;;;;;;;105.68;43.22;;;;;;;-9.38;83.78;101718.53;5056080;28;20021;-82
2024/01/09 08:56:36;;;;;;;95.13;42.20;;;;;;;-9.42;83.92;101720.72;5055739;28;20044;-82
2024/01/09 08:59:02;;;;;;;100.07;43.80;;;;;;;-9.57;84.35;101708.84;5056144;28;20356;-82
2024/01/09 09:01:28;;;;;;;101.32;50.83;;;;;;;-9.48;84.83;101731.31;5055691;28;20104;-82
2024/01/09 09:03:54;;;;;;;96.88;43.97;;;;;;;-9.66;84.38;101690.56;5056309;28;20341;-82
2024/01/09 09:06:19;;;;;;;98.82;43.60;;;;;;;-9.64;84.87;101703.28;5055964;28;20041;-83
2024/01/09 09:08:45;;;;;;;98.70;43.50;;;;;;;-9.59;85.01;101712.91;5055255;28;20139;-82
2024/01/09 09:11:14;;;;;;;106.88;46.45;;;;;;;-9.46;85.22;101741.47;5055416;28;20047;-83
2024/01/09 09:13:41;;;;;;;98.70;43.88;;;;;;;-9.53;84.91;101731.75;5055732;28;20032;-81
2024/01/09 09:16:07;;;;;;;104.60;46.22;;;;;;;-9.73;84.83;101707.69;5056280;28;20051;-82
2024/01/09 09:18:32;;;;;;;99.18;43.25;;;;;;;-9.65;85.15;101720.06;5055703;28;20452;-82
2024/01/09 09:20:58;;;;;;;99.30;43.42;;;;;;;-9.80;85.02;101697.22;5055651;28;20079;-82
2024/01/09 09:23:23;;;;;;;104.95;46.72;;;;;;;-9.70;85.26;101718.00;5055632;28;20077;-82
2024/01/09 09:25:49;;;;;;;92.57;39.10;;;;;;;-9.69;85.05;101717.22;5055571;28;20133;-82
2024/01/09 09:28:14;;;;;;;95.68;40.40;;;;;;;-9.63;84.94;101731.13;5056358;28;20032;-82
2024/01/09 09:30:40;;;;;;;105.28;44.63;;;;;;;-9.61;85.18;101732.09;5055531;28;20017;-83
2024/01/09 09:33:05;;;;;;;93.25;41.40;;;;;;;-9.70;85.21;101706.25;5057738;28;20029;-82
2024/01/09 09:35:30;;;;;;;104.32;43.13;;;;;;;-9.84;85.89;101676.72;5055326;28;20028;-82
2024/01/09 09:37:56;;;;;;;100.30;41.88;;;;;;;-9.64;86.05;101704.16;5059869;28;20099;-82
2024/01/09 09:40:22;;;;;;;92.75;40.95;;;;;;;-9.61;86.41;101706.00;5065122;28;20514;-82
2024/01/09 09:42:57;;;;;;;96.85;41.88;;;;;;;-9.49;86.50;101727.00;5069658;28;20017;-81
2024/01/09 09:45:25;;;;;;;98.05;43.97;;;;;;;-9.45;86.70;101728.09;5074636;28;20024;-81
2024/01/09 09:47:53;;;;;;;88.88;40.70;;;;;;;-9.38;86.57;101736.19;5076694;28;20027;-81
2024/01/09 09:50:19;;;;;;;91.45;42.15;;;;;;;-9.28;86.27;101739.31;5068860;28;20053;-82
2024/01/09 09:52:44;;;;;;;98.68;44.92;;;;;;;-9.31;86.47;101733.31;5068553;28;20024;-81
2024/01/09 09:55:10;;;;;;;98.70;45.72;;;;;;;-9.44;86.82;101692.88;5062270;28;20082;-80
2024/01/09 09:57:37;;;;;;;99.07;43.78;;;;;;;-9.50;86.70;101673.94;5065309;28;20063;-80
2024/01/09 10:00:09;;;;;;;102.05;45.15;;;;;;;-9.17;86.57;101730.81;5063591;28;20017;-80
2024/01/09 10:02:44;;;;;;;108.15;45.22;;;;;;;-9.12;86.90;101731.97;5066095;28;20471;-80
2024/01/09 10:05:13;;;;;;;104.28;45.47;;;;;;;-9.13;86.81;101723.53;5071222;28;20012;-80
2024/01/09 10:07:43;;;;;;;106.55;46.38;;;;;;;-9.21;86.86;101718.75;5061209;28;20044;-80
2024/01/09 10:10:11;;;;;;;109.97;46.28;;;;;;;-9.08;86.99;101721.31;5069966;28;20029;-79
2024/01/09 10:12:37;;;;;;;96.57;44.90;;;;;;;-9.06;87.40;101712.16;5068054;28;20023;-80
2024/01/09 10:15:05;;;;;;;101.90;45.53;;;;;;;-9.04;87.16;101695.50;5079408;28;20020;-81
2024/01/09 10:17:30;;;;;;;106.93;47.72;;;;;;;-8.99;87.11;101705.88;5074999;28;20430;-81
2024/01/09 10:19:55;;;;;;;102.88;48.47;;;;;;;-8.97;87.46;101691.69;5059000;28;20020;-82
2024/01/09 10:22:21;;;;;;;210.88;93.63;;;;;;;-8.92;87.94;101703.00;5054497;28;20017;-82
2024/01/09 10:24:46;;;;;;;221.40;107.13;;;;;;;-8.92;87.28;101700.47;5052841;28;20024;-81
2024/01/09 10:27:12;;;;;;;125.95;60.35;;;;;;;-9.17;86.95;101653.44;5062754;28;20021;-81
2024/01/09 10:29:44;;;;;;;112.70;50.88;;;;;;;-9.00;87.18;101672.19;5074505;28;20028;-82
2024/01/09 10:32:13;;;;;;;119.72;54.92;;;;;;;-8.84;86.91;101702.72;5074698;28;20024;-82
2024/01/09 10:34:39;;;;;;;82.30;39.13;;;;;;;-8.95;86.30;101675.00;5074663;28;20051;-81
2024/01/09 10:37:08;;;;;;;88.55;41.63;;;;;;;-8.92;86.29;101671.03;5075516;28;20024;-81
2024/01/09 10:39:33;;;;;;;88.85;41.60;;;;;;;-8.68;86.71;101693.56;5073887;28;20354;-81
2024/01/09 10:42:07;;;;;;;104.53;48.05;;;;;;;-8.62;86.74;101699.88;5074336;28;20019;-82
2024/01/09 10:44:33;;;;;;;92.10;42.97;;;;;;;-8.57;86.56;101700.19;5074276;28;20072;-81
2024/01/09 10:47:00;;;;;;;111.75;49.53;;;;;;;-8.67;87.27;101670.94;5075357;28;20012;-81
2024/01/09 10:49:26;;;;;;;94.93;41.80;;;;;;;-8.69;87.00;101658.97;5078352;28;20024;-81
2024/01/09 10:51:53;;;;;;;124.20;59.80;;;;;;;-8.48;87.41;101679.66;5075064;28;20025;-82